In Rescue
 
Open Full Screen Window  High Contrast Mode
Wind Gusting 00 knots
06
March 04, 2021 4:08 AM CST
Weather Information
Wind Direction
  140 °
Wind Speed
  06 kt (7 mph)
Wind Gust
  00 kt (0 mph)
Altimeter
30.11 in
Visibility
7 SM
Temperature
02° C
36° F
Dewpoint
01° C
34° F
Humidity
93%
1hr Rain Fall
00.00 in.
24hr Rain Fall
00.00 in.
Sky Condition
Clear
VFR

METAR KPQN 041008Z AUTO 14006KT 7SM CLR 02/01 A3011 RMK AO2

FAA Disclaimer: The data displayed is for advisory purposes only and is not to be used for flight planning or operations.